Terminal Aerodrome Forecast
Issued by NWS

Home | Current Version | Previous Version | Text Only | Print | Product List | Glossary On
Versions: 1 2 3 4 5 6 7 8 9 10 11 12 13 14 15 16 17 18 19 20 21 22
000
FTUS46 KEKA 200621 AAA
TAFCEC
TAF AMD
KCEC 200621Z 2006/2106 16005KT 6SM -RA BR SCT004 SCT011 OVC060
     FM200800 16015G25KT 6SM -RA BR BKN040 OVC060
     FM200900 17022G32KT P6SM -RA BKN050 OVC070
     FM201100 18032G44KT 5SM -RA BKN025 OVC050
     FM201500 19022G38KT 6SM -RA BKN020 OVC035
     FM201800 18015G25KT P6SM -SHRA BKN025
     FM202100 16010KT P6SM -SHRA OVC040=

USA.gov is the U.S. government's official web portal to all federal, state and local government web resources and services.